Time;durP1;ratioP1;P1;durP2;ratioP2;P2;SDS_P1;SDS_P2;PMS_P1;PMS_P2;Temp;Humidity;BMP_temperature;BMP_pressure;BME280_temperature;BME280_humidity;BME280_pressure;Samples;Min_cycle;Max_cycle;Signal;HPM_P1;HPM_P2
2021/08/29 00:02:14;;;;;;;3.25;1.48;;;16.80;91.40;;;;;;5052087;28;20488;-75
2021/08/29 00:04:40;;;;;;;3.47;1.77;;;16.80;91.40;;;;;;5052661;28;20032;-75
2021/08/29 00:07:06;;;;;;;4.82;1.52;;;16.80;91.40;;;;;;5053461;28;20423;-75
2021/08/29 00:09:31;;;;;;;5.95;1.40;;;16.70;91.40;;;;;;5052798;28;20366;-75
2021/08/29 00:11:57;;;;;;;2.70;1.40;;;16.80;91.40;;;;;;5053108;28;20021;-75
2021/08/29 00:14:23;;;;;;;4.32;1.40;;;16.70;91.40;;;;;;5053504;28;20056;-75
2021/08/29 00:16:48;;;;;;;2.50;1.30;;;16.80;91.50;;;;;;5053124;28;20476;-75
2021/08/29 00:19:14;;;;;;;7.07;2.15;;;16.80;91.50;;;;;;5052670;28;20037;-74
2021/08/29 00:21:40;;;;;;;5.22;1.77;;;16.80;91.50;;;;;;5052417;28;20096;-73
2021/08/29 00:24:05;;;;;;;4.00;1.70;;;16.80;91.50;;;;;;5051304;28;20079;-74
2021/08/29 00:26:31;;;;;;;4.22;1.80;;;16.80;91.50;;;;;;5052236;28;20025;-74
2021/08/29 00:28:57;;;;;;;4.88;1.77;;;16.80;91.50;;;;;;5052544;28;20028;-75
2021/08/29 00:31:22;;;;;;;5.25;1.77;;;16.80;91.50;;;;;;5052788;28;20029;-75
2021/08/29 00:33:48;;;;;;;4.63;1.55;;;16.80;91.50;;;;;;5051876;28;20052;-74
2021/08/29 00:36:14;;;;;;;5.72;2.08;;;16.90;91.60;;;;;;5052722;28;20029;-74
2021/08/29 00:38:40;;;;;;;6.10;1.88;;;16.80;91.60;;;;;;5050475;28;20060;-74
2021/08/29 00:41:07;;;;;;;4.65;1.63;;;16.80;91.60;;;;;;5052669;28;20087;-74
2021/08/29 00:43:33;;;;;;;2.95;1.75;;;16.80;91.60;;;;;;5052036;28;20033;-74
2021/08/29 00:45:58;;;;;;;2.95;1.30;;;16.80;91.60;;;;;;5052474;28;20024;-74
2021/08/29 00:48:24;;;;;;;4.13;1.60;;;16.80;91.60;;;;;;5052062;28;20032;-73
2021/08/29 00:50:50;;;;;;;4.53;1.90;;;16.80;91.70;;;;;;5051483;28;20074;-74
2021/08/29 00:53:20;;;;;;;4.72;1.50;;;16.80;91.70;;;;;;5052498;28;20028;-74
2021/08/29 00:55:47;;;;;;;3.15;1.38;;;16.80;91.70;;;;;;5051899;28;20449;-74
2021/08/29 00:58:12;;;;;;;1.98;1.13;;;16.90;91.70;;;;;;5052597;28;20025;-74
2021/08/29 01:00:41;;;;;;;1.92;1.25;;;16.80;92.00;;;;;;5050450;28;20163;-74
2021/08/29 01:03:15;;;;;;;6.25;1.70;;;16.90;91.70;;;;;;5052559;28;20035;-74
2021/08/29 01:05:50;;;;;;;4.20;1.85;;;16.90;91.70;;;;;;5051601;28;20028;-74
2021/08/29 01:08:17;;;;;;;2.67;1.50;;;16.90;91.80;;;;;;5052217;28;20028;-74
2021/08/29 01:10:55;;;;;;;4.35;1.60;;;16.90;91.80;;;;;;5051514;28;20529;-74
2021/08/29 01:13:27;;;;;;;4.35;1.60;;;16.90;91.80;;;;;;5052211;28;20013;-74
2021/08/29 01:15:55;;;;;;;4.30;1.73;;;16.80;91.80;;;;;;5052124;28;20017;-74
2021/08/29 01:18:23;;;;;;;2.97;1.17;;;16.90;91.80;;;;;;5051902;28;20029;-74
2021/08/29 01:21:07;;;;;;;4.78;1.58;;;16.90;91.80;;;;;;5051149;28;20036;-74
2021/08/29 01:23:38;;;;;;;3.92;1.58;;;16.90;91.90;;;;;;5051425;28;20017;-74
2021/08/29 01:26:41;;;;;;;5.38;1.80;;;16.90;91.90;;;;;;5052139;28;20488;-74
2021/08/29 01:29:09;;;;;;;2.35;1.23;;;16.90;91.90;;;;;;5050761;28;20025;-74
2021/08/29 01:31:38;;;;;;;2.70;1.65;;;16.90;91.80;;;;;;5051052;28;20021;-75
2021/08/29 01:34:09;;;;;;;4.63;1.80;;;16.90;91.80;;;;;;5051993;28;20024;-75
2021/08/29 01:36:39;;;;;;;3.53;1.65;;;17.00;91.80;;;;;;5051324;28;20025;-75
2021/08/29 01:39:05;;;;;;;3.45;1.45;;;16.90;91.80;;;;;;5051473;28;20053;-74
2021/08/29 01:41:35;;;;;;;3.15;1.55;;;16.90;91.90;;;;;;5050848;28;20077;-74
2021/08/29 01:44:02;;;;;;;5.47;1.83;;;16.90;92.20;;;;;;5051705;28;20025;-74
2021/08/29 01:46:29;;;;;;;5.13;1.80;;;16.90;91.90;;;;;;5051701;28;20025;-75
2021/08/29 01:48:56;;;;;;;4.80;1.40;;;16.90;91.90;;;;;;5051668;28;20036;-74
2021/08/29 01:51:21;;;;;;;3.38;1.48;;;16.90;91.90;;;;;;5053643;28;20078;-74
2021/08/29 01:53:47;;;;;;;4.30;1.88;;;16.90;91.90;;;;;;5055256;28;20032;-74
2021/08/29 01:56:13;;;;;;;2.95;1.60;;;16.90;92.00;;;;;;5055456;28;20097;-74
2021/08/29 01:58:38;;;;;;;4.55;1.80;;;17.00;92.00;;;;;;5055167;28;20029;-74
2021/08/29 02:01:12;;;;;;;3.80;1.90;;;17.00;92.20;;;;;;5055659;28;20064;-74
2021/08/29 02:03:42;;;;;;;4.18;2.00;;;17.00;92.00;;;;;;5054976;28;20029;-74
2021/08/29 02:06:12;;;;;;;3.38;1.70;;;17.00;91.90;;;;;;5055597;28;20055;-74
2021/08/29 02:08:49;;;;;;;7.05;2.20;;;17.00;92.00;;;;;;5053627;28;20115;-74
2021/08/29 02:11:18;;;;;;;3.88;1.73;;;17.00;92.00;;;;;;5055677;28;20032;-74
2021/08/29 02:13:46;;;;;;;3.50;1.65;;;17.00;92.00;;;;;;5054807;28;20021;-74
2021/08/29 02:16:15;;;;;;;6.38;1.95;;;17.00;92.00;;;;;;5055604;28;20473;-74
2021/08/29 02:18:42;;;;;;;3.80;1.70;;;17.00;92.00;;;;;;5054355;28;20415;-74
2021/08/29 02:21:10;;;;;;;4.75;1.85;;;17.00;92.00;;;;;;5055378;28;20021;-74
2021/08/29 02:23:36;;;;;;;5.05;2.00;;;17.00;92.00;;;;;;5054385;28;20029;-74
2021/08/29 02:26:02;;;;;;;4.78;1.60;;;17.00;92.10;;;;;;5055585;28;20025;-74
2021/08/29 02:28:29;;;;;;;6.18;2.25;;;17.00;92.10;;;;;;5053965;28;20056;-74
2021/08/29 02:30:55;;;;;;;5.15;2.30;;;17.00;92.20;;;;;;5054496;28;20503;-74
2021/08/29 02:33:23;;;;;;;4.63;1.63;;;17.00;92.10;;;;;;5053705;28;20044;-74
2021/08/29 02:35:50;;;;;;;3.50;1.75;;;17.00;92.10;;;;;;5054350;28;20025;-74
2021/08/29 02:38:18;;;;;;;5.70;2.10;;;17.00;92.10;;;;;;5054530;28;20025;-74
2021/08/29 02:40:45;;;;;;;3.95;1.90;;;17.00;92.10;;;;;;5053782;28;20045;-74
2021/08/29 02:43:12;;;;;;;3.90;2.00;;;17.00;92.10;;;;;;5054848;28;20033;-74
2021/08/29 02:45:40;;;;;;;7.43;2.10;;;17.00;92.10;;;;;;5054247;28;20071;-74
2021/08/29 02:48:06;;;;;;;5.85;1.92;;;17.00;92.10;;;;;;5053757;28;20025;-74
2021/08/29 02:50:33;;;;;;;5.43;2.28;;;17.00;92.10;;;;;;5054764;28;20089;-74
2021/08/29 02:52:59;;;;;;;5.50;2.47;;;17.00;92.10;;;;;;5054618;28;20025;-74
2021/08/29 02:55:26;;;;;;;5.30;2.40;;;17.00;92.10;;;;;;5054729;28;20473;-74
2021/08/29 02:58:03;;;;;;;5.57;3.25;;;17.00;92.00;;;;;;5052542;28;20385;-75
2021/08/29 03:00:29;;;;;;;5.93;2.67;;;17.00;92.00;;;;;;5054374;28;20021;-74
2021/08/29 03:02:55;;;;;;;5.15;2.75;;;17.00;92.00;;;;;;5052668;28;20375;-74
2021/08/29 03:05:21;;;;;;;9.52;3.28;;;17.00;92.00;;;;;;5054504;28;20453;-74
2021/08/29 03:07:47;;;;;;;10.27;3.88;;;17.00;92.00;;;;;;5053539;28;20025;-74
2021/08/29 03:10:13;;;;;;;6.40;4.22;;;17.00;91.90;;;;;;5054640;28;20021;-74
2021/08/29 03:12:40;;;;;;;10.60;5.30;;;17.00;91.90;;;;;;5053796;28;20017;-74
2021/08/29 03:15:07;;;;;;;9.23;5.00;;;17.00;91.90;;;;;;5052972;28;20025;-74
2021/08/29 03:17:33;;;;;;;12.30;5.72;;;17.00;91.90;;;;;;5053854;28;20025;-74
2021/08/29 03:20:01;;;;;;;8.23;5.28;;;17.00;91.90;;;;;;5053250;28;20078;-74
2021/08/29 03:22:27;;;;;;;16.50;7.03;;;17.00;91.90;;;;;;5054175;28;20032;-74
2021/08/29 03:24:53;;;;;;;13.20;6.40;;;17.00;91.90;;;;;;5053710;28;20028;-74
2021/08/29 03:27:19;;;;;;;12.98;6.55;;;16.90;92.20;;;;;;5054067;28;20479;-74
2021/08/29 03:29:45;;;;;;;13.43;6.55;;;16.90;92.20;;;;;;5053419;28;20051;-74
2021/08/29 03:32:11;;;;;;;13.43;7.13;;;16.80;92.40;;;;;;5054277;28;20469;-74
2021/08/29 03:34:37;;;;;;;10.55;6.82;;;16.70;92.50;;;;;;5053586;28;20028;-74
2021/08/29 03:37:06;;;;;;;15.80;6.38;;;16.70;92.60;;;;;;5054230;28;20025;-74
2021/08/29 03:39:33;;;;;;;15.25;7.00;;;16.70;92.60;;;;;;5053669;28;20481;-74
2021/08/29 03:41:59;;;;;;;16.73;5.82;;;16.70;92.60;;;;;;5053239;28;20319;-74
2021/08/29 03:44:26;;;;;;;9.32;4.88;;;16.70;92.70;;;;;;5052421;28;20028;-75
2021/08/29 03:46:52;;;;;;;13.38;5.50;;;16.60;92.70;;;;;;5053161;28;20024;-74
2021/08/29 03:49:18;;;;;;;10.65;5.75;;;16.70;92.80;;;;;;5053669;28;20029;-74
2021/08/29 03:51:45;;;;;;;9.93;5.47;;;16.70;92.80;;;;;;5053010;28;20025;-74
2021/08/29 03:54:14;;;;;;;13.38;5.25;;;16.70;92.70;;;;;;5053887;28;20029;-74
2021/08/29 03:56:41;;;;;;;8.32;4.45;;;16.70;92.80;;;;;;5052939;28;20017;-74
2021/08/29 03:59:07;;;;;;;9.82;4.68;;;16.70;92.80;;;;;;5053339;28;20059;-74
2021/08/29 04:01:33;;;;;;;8.52;4.00;;;16.70;92.80;;;;;;5053320;28;20036;-74
2021/08/29 04:03:59;;;;;;;9.38;4.20;;;16.80;92.80;;;;;;5052753;28;20390;-74
2021/08/29 04:06:32;;;;;;;8.65;3.83;;;16.80;92.80;;;;;;5053139;28;20085;-74
2021/08/29 04:09:03;;;;;;;7.43;3.03;;;16.80;92.80;;;;;;5052737;28;20028;-75
2021/08/29 04:11:30;;;;;;;6.78;3.08;;;16.80;92.80;;;;;;5053276;28;20021;-74
2021/08/29 04:13:57;;;;;;;7.20;2.95;;;16.80;92.90;;;;;;5052213;28;20021;-75
2021/08/29 04:16:24;;;;;;;6.00;2.22;;;16.80;92.90;;;;;;5051765;28;20116;-74
2021/08/29 04:18:50;;;;;;;5.05;2.17;;;16.80;92.90;;;;;;5052451;28;20056;-75
2021/08/29 04:21:19;;;;;;;4.97;2.30;;;16.80;92.90;;;;;;5053060;28;20032;-74
2021/08/29 04:23:45;;;;;;;5.10;2.22;;;16.80;92.90;;;;;;5052443;28;20025;-74
2021/08/29 04:26:11;;;;;;;4.50;2.15;;;16.80;92.90;;;;;;5052840;28;20100;-74
2021/08/29 04:28:37;;;;;;;5.78;1.95;;;16.80;92.90;;;;;;5051720;28;20451;-74
2021/08/29 04:31:09;;;;;;;6.97;2.10;;;16.80;92.90;;;;;;5052079;28;20513;-74
2021/08/29 04:33:35;;;;;;;5.75;2.22;;;16.80;92.90;;;;;;5053283;28;20094;-74
2021/08/29 04:36:02;;;;;;;5.40;1.80;;;16.80;92.90;;;;;;5051909;28;20344;-75
2021/08/29 04:38:28;;;;;;;9.77;2.28;;;16.80;93.00;;;;;;5052608;28;20032;-74
2021/08/29 04:40:54;;;;;;;5.15;1.65;;;16.80;93.00;;;;;;5051631;28;20120;-75
2021/08/29 04:43:19;;;;;;;2.50;1.40;;;16.80;93.00;;;;;;5052503;28;20125;-75
2021/08/29 04:45:45;;;;;;;6.05;1.65;;;16.80;93.00;;;;;;5051727;28;20017;-74
2021/08/29 04:48:11;;;;;;;6.68;1.40;;;16.80;93.00;;;;;;5052566;28;20025;-74
2021/08/29 04:50:37;;;;;;;5.10;1.60;;;16.80;93.00;;;;;;5052497;28;20079;-74
2021/08/29 04:53:02;;;;;;;4.70;1.90;;;16.80;93.00;;;;;;5051486;28;20366;-75
2021/08/29 04:55:30;;;;;;;4.18;1.60;;;16.90;93.00;;;;;;5052257;28;20408;-75
2021/08/29 04:57:56;;;;;;;5.82;1.98;;;16.80;93.00;;;;;;5051754;28;20037;-74
2021/08/29 05:00:22;;;;;;;4.60;2.00;;;16.90;93.00;;;;;;5052385;28;20134;-74
2021/08/29 05:02:47;;;;;;;4.57;1.55;;;16.90;93.00;;;;;;5051756;28;20527;-74
2021/08/29 05:05:13;;;;;;;3.53;1.30;;;16.80;93.00;;;;;;5052218;28;20104;-75
2021/08/29 05:07:39;;;;;;;7.20;1.52;;;16.80;93.00;;;;;;5052250;28;20025;-74
2021/08/29 05:10:05;;;;;;;5.25;1.40;;;16.80;93.00;;;;;;5051476;28;20029;-74
2021/08/29 05:12:30;;;;;;;5.80;1.92;;;16.90;93.00;;;;;;5051802;28;20366;-74
2021/08/29 05:14:56;;;;;;;3.75;1.77;;;16.90;93.00;;;;;;5051132;28;20032;-74
2021/08/29 05:17:21;;;;;;;4.47;1.52;;;16.90;93.00;;;;;;5051968;28;20041;-74
2021/08/29 05:19:47;;;;;;;5.72;1.30;;;16.90;93.00;;;;;;5051315;28;20038;-74
2021/08/29 05:22:13;;;;;;;8.75;1.67;;;17.00;93.00;;;;;;5052050;28;20028;-74
2021/08/29 05:24:39;;;;;;;4.25;2.00;;;17.00;93.00;;;;;;5051634;28;20032;-74
2021/08/29 05:27:04;;;;;;;5.80;1.50;;;17.00;93.00;;;;;;5050423;28;20270;-74
2021/08/29 05:29:30;;;;;;;4.78;1.67;;;17.00;93.00;;;;;;5051577;28;20079;-74
2021/08/29 05:31:56;;;;;;;4.97;1.65;;;17.00;93.00;;;;;;5051050;28;20036;-74
2021/08/29 05:34:21;;;;;;;4.85;1.40;;;17.10;93.00;;;;;;5052047;28;20366;-74
2021/08/29 05:36:47;;;;;;;8.07;2.17;;;17.10;93.00;;;;;;5051443;28;20071;-74
2021/08/29 05:39:13;;;;;;;3.20;1.40;;;17.10;92.90;;;;;;5051595;28;20049;-74
2021/08/29 05:41:38;;;;;;;5.38;1.75;;;17.10;92.90;;;;;;5051925;28;20023;-74
2021/08/29 05:44:04;;;;;;;6.05;1.48;;;17.10;92.90;;;;;;5051126;28;20299;-74
2021/08/29 05:46:30;;;;;;;5.38;1.75;;;17.10;92.90;;;;;;5051528;28;20028;-74
2021/08/29 05:48:55;;;;;;;4.10;1.30;;;17.10;92.90;;;;;;5051089;28;20061;-74
2021/08/29 05:51:21;;;;;;;3.63;1.17;;;17.10;92.90;;;;;;5051657;28;20509;-74
2021/08/29 05:53:47;;;;;;;3.83;1.33;;;17.20;92.90;;;;;;5050872;28;20017;-73
2021/08/29 05:56:12;;;;;;;4.68;1.67;;;17.20;92.90;;;;;;5051406;28;20473;-75
2021/08/29 05:58:38;;;;;;;7.53;1.88;;;17.10;92.90;;;;;;5051584;28;20090;-74
2021/08/29 06:01:04;;;;;;;7.18;1.92;;;17.20;92.90;;;;;;5050716;28;20029;-74
2021/08/29 06:03:31;;;;;;;7.72;1.70;;;17.20;92.90;;;;;;5050168;28;20064;-74
2021/08/29 06:05:57;;;;;;;4.68;1.90;;;17.20;92.90;;;;;;5050897;28;20025;-74
2021/08/29 06:08:23;;;;;;;2.80;1.30;;;17.20;92.90;;;;;;5051475;28;20107;-74
2021/08/29 06:10:49;;;;;;;6.00;1.50;;;17.30;92.90;;;;;;5066303;28;20517;-74
2021/08/29 06:13:14;;;;;;;4.40;1.48;;;17.20;92.90;;;;;;5050258;28;20478;-74
2021/08/29 06:15:40;;;;;;;4.78;1.45;;;17.30;92.90;;;;;;5051445;28;20416;-74
2021/08/29 06:18:06;;;;;;;5.30;1.85;;;17.30;92.90;;;;;;5050683;28;20029;-74
2021/08/29 06:20:32;;;;;;;4.00;1.42;;;17.30;92.90;;;;;;5051489;28;20029;-74
2021/08/29 06:22:57;;;;;;;4.30;1.38;;;17.30;92.80;;;;;;5050729;28;20071;-74
2021/08/29 06:25:23;;;;;;;4.68;1.58;;;17.30;92.80;;;;;;5051386;28;20023;-74
2021/08/29 06:27:49;;;;;;;6.75;1.65;;;17.40;92.80;;;;;;5050954;28;20031;-74
2021/08/29 06:30:14;;;;;;;4.22;1.70;;;17.30;92.80;;;;;;5050943;28;20059;-74
2021/08/29 06:32:40;;;;;;;2.78;1.40;;;17.40;92.80;;;;;;5051106;28;20477;-74
2021/08/29 06:35:06;;;;;;;3.33;1.65;;;17.40;92.70;;;;;;5050722;28;20558;-74
2021/08/29 06:37:32;;;;;;;4.30;1.60;;;17.50;92.70;;;;;;5052936;28;20033;-74
2021/08/29 06:39:57;;;;;;;5.10;1.60;;;17.50;92.70;;;;;;5053793;28;20413;-75
2021/08/29 06:42:23;;;;;;;4.05;1.70;;;17.50;92.70;;;;;;5054880;28;20028;-75
2021/08/29 06:44:49;;;;;;;4.82;1.42;;;17.50;92.60;;;;;;5054842;28;20021;-74
2021/08/29 06:47:14;;;;;;;5.93;2.00;;;17.50;92.60;;;;;;5053943;28;20025;-75
2021/08/29 06:49:40;;;;;;;5.88;1.55;;;17.50;92.60;;;;;;5054822;28;20053;-75
2021/08/29 06:52:06;;;;;;;3.55;1.30;;;17.50;92.60;;;;;;5054220;28;20170;-75
2021/08/29 06:54:31;;;;;;;5.35;1.98;;;17.60;92.70;;;;;;5054596;28;20104;-75
2021/08/29 06:56:57;;;;;;;7.65;1.65;;;17.60;92.60;;;;;;5054036;28;20028;-75
2021/08/29 06:59:23;;;;;;;3.97;1.45;;;17.60;92.60;;;;;;5054659;28;20384;-75
2021/08/29 07:01:48;;;;;;;3.38;1.38;;;17.60;92.60;;;;;;5054306;28;20052;-75
2021/08/29 07:04:14;;;;;;;5.45;1.45;;;17.70;92.50;;;;;;5053569;28;20021;-75
2021/08/29 07:06:39;;;;;;;4.38;1.38;;;17.70;92.40;;;;;;5054390;28;20021;-75
2021/08/29 07:09:05;;;;;;;4.57;1.17;;;17.70;92.40;;;;;;5053673;28;20029;-75
2021/08/29 07:11:31;;;;;;;4.38;1.50;;;17.70;92.40;;;;;;5054333;28;20024;-76
2021/08/29 07:13:56;;;;;;;6.57;1.67;;;17.70;92.30;;;;;;5052319;28;20104;-75
2021/08/29 07:16:22;;;;;;;4.30;1.45;;;17.70;92.30;;;;;;5053965;28;20083;-75
2021/08/29 07:18:48;;;;;;;4.20;1.70;;;17.70;92.30;;;;;;5054226;28;20033;-75
2021/08/29 07:21:14;;;;;;;5.95;1.75;;;17.70;92.40;;;;;;5052235;28;20116;-75
2021/08/29 07:23:39;;;;;;;5.53;1.50;;;17.70;92.40;;;;;;5053843;28;20033;-75
2021/08/29 07:26:05;;;;;;;4.20;1.60;;;17.70;92.50;;;;;;5052160;28;20022;-76
2021/08/29 07:28:31;;;;;;;5.28;1.30;;;17.70;92.50;;;;;;5053986;28;20032;-75
2021/08/29 07:30:57;;;;;;;7.68;1.48;;;17.70;92.60;;;;;;5053342;28;20112;-75
2021/08/29 07:33:22;;;;;;;3.78;1.30;;;17.60;92.60;;;;;;5053665;28;20029;-75
2021/08/29 07:35:48;;;;;;;2.75;1.15;;;17.60;92.70;;;;;;5052304;28;20025;-75
2021/08/29 07:38:14;;;;;;;4.45;1.23;;;17.60;92.70;;;;;;5051945;28;20139;-75
2021/08/29 07:40:39;;;;;;;3.30;1.00;;;17.60;92.70;;;;;;5053755;28;20066;-74
2021/08/29 07:43:05;;;;;;;6.55;1.80;;;17.60;92.70;;;;;;5053211;28;20025;-74
2021/08/29 07:45:31;;;;;;;3.58;1.48;;;17.70;92.60;;;;;;5053685;28;20028;-75
2021/08/29 07:47:56;;;;;;;3.22;1.63;;;17.70;92.60;;;;;;5052861;28;20025;-74
2021/08/29 07:50:23;;;;;;;5.25;1.48;;;17.70;92.60;;;;;;5053149;28;20072;-75
2021/08/29 07:52:49;;;;;;;3.33;1.05;;;17.70;92.60;;;;;;5053572;28;20025;-75
2021/08/29 07:55:15;;;;;;;6.97;1.83;;;17.70;92.70;;;;;;5052934;28;20298;-75
2021/08/29 07:57:41;;;;;;;4.63;1.77;;;17.60;92.70;;;;;;5053183;28;20496;-75
2021/08/29 08:00:08;;;;;;;3.83;1.60;;;17.60;92.80;;;;;;5052904;28;19921;-75
2021/08/29 08:02:34;;;;;;;5.53;1.45;;;17.60;92.90;;;;;;5053615;28;20017;-75
2021/08/29 08:04:59;;;;;;;6.30;1.70;;;17.50;93.00;;;;;;5052650;28;20031;-76
2021/08/29 08:07:25;;;;;;;5.15;1.40;;;17.40;93.20;;;;;;5069068;28;20052;-76
2021/08/29 08:09:51;;;;;;;5.80;1.50;;;17.30;93.40;;;;;;5052056;28;20436;-76
2021/08/29 08:12:16;;;;;;;4.13;1.20;;;17.20;93.50;;;;;;5052354;28;20090;-75
2021/08/29 08:14:42;;;;;;;3.70;1.25;;;17.20;93.60;;;;;;5052974;28;20017;-75
2021/08/29 08:17:08;;;;;;;4.80;1.65;;;17.20;93.60;;;;;;5052545;28;20032;-75
2021/08/29 08:19:34;;;;;;;4.00;1.30;;;17.20;93.60;;;;;;5051490;28;20477;-75
2021/08/29 08:22:01;;;;;;;4.10;1.30;;;17.20;93.60;;;;;;5051078;28;20469;-75
2021/08/29 08:24:26;;;;;;;2.38;1.13;;;17.30;93.70;;;;;;5053348;28;20500;-76
2021/08/29 08:26:52;;;;;;;5.53;1.45;;;17.30;93.70;;;;;;5053204;28;20033;-76
2021/08/29 08:29:18;;;;;;;3.90;1.60;;;17.30;93.80;;;;;;5052257;28;20077;-76
2021/08/29 08:31:43;;;;;;;2.88;1.17;;;17.20;93.90;;;;;;5053158;28;20017;-76
2021/08/29 08:34:09;;;;;;;6.43;1.70;;;17.20;94.00;;;;;;5051965;28;20033;-76
2021/08/29 08:36:35;;;;;;;5.72;1.67;;;17.10;94.10;;;;;;5051573;28;20017;-76
2021/08/29 08:39:01;;;;;;;5.13;1.60;;;17.00;94.20;;;;;;5051789;28;20116;-73
2021/08/29 08:41:27;;;;;;;3.97;1.25;;;17.00;94.20;;;;;;5052736;28;20550;-75
2021/08/29 08:43:53;;;;;;;4.10;1.23;;;17.00;94.20;;;;;;5052999;28;20017;-76
2021/08/29 08:46:20;;;;;;;5.68;2.05;;;17.00;94.40;;;;;;5051954;28;20481;-76
2021/08/29 08:48:49;;;;;;;2.55;1.10;;;17.00;94.10;;;;;;5052633;28;20031;-75
2021/08/29 08:51:23;;;;;;;6.78;1.63;;;17.00;94.10;;;;;;5051859;28;20025;-75
2021/08/29 08:53:51;;;;;;;4.80;1.85;;;17.10;94.20;;;;;;5052329;28;20379;-75
2021/08/29 08:56:18;;;;;;;2.80;1.20;;;17.10;94.30;;;;;;5051749;28;20028;-76
2021/08/29 08:58:45;;;;;;;2.95;1.02;;;17.10;94.30;;;;;;5051992;28;20025;-76
2021/08/29 09:01:11;;;;;;;5.50;1.63;;;17.20;94.30;;;;;;5050797;28;20025;-75
2021/08/29 09:03:37;;;;;;;4.07;2.08;;;17.10;94.30;;;;;;5052068;28;20048;-76
2021/08/29 09:06:05;;;;;;;3.80;1.50;;;17.20;94.40;;;;;;5051485;28;20020;-75
2021/08/29 09:08:33;;;;;;;7.72;1.50;;;17.20;94.50;;;;;;5051896;28;20082;-75
2021/08/29 09:10:58;;;;;;;3.22;1.55;;;17.30;94.50;;;;;;5052458;28;20464;-75
2021/08/29 09:13:24;;;;;;;3.90;1.23;;;17.30;94.50;;;;;;5051110;28;20086;-76
2021/08/29 09:15:50;;;;;;;4.57;1.38;;;17.30;94.50;;;;;;5050826;28;20053;-75
2021/08/29 09:18:16;;;;;;;4.32;1.83;;;17.30;94.50;;;;;;5051356;28;20182;-75
2021/08/29 09:20:41;;;;;;;3.03;1.50;;;17.30;94.60;;;;;;5052083;28;20025;-75
2021/08/29 09:23:13;;;;;;;4.15;1.35;;;17.30;94.60;;;;;;5051197;28;20031;-74
2021/08/29 09:25:41;;;;;;;4.70;1.50;;;17.30;94.50;;;;;;5052031;28;20021;-74
2021/08/29 09:28:15;;;;;;;6.55;1.70;;;17.40;94.50;;;;;;5049930;28;20029;-74
2021/08/29 09:30:45;;;;;;;2.83;1.10;;;17.40;94.60;;;;;;5051939;28;20017;-77
2021/08/29 09:33:11;;;;;;;5.10;1.45;;;17.40;94.50;;;;;;5051309;28;20082;-77
2021/08/29 09:35:37;;;;;;;3.50;1.25;;;17.40;94.50;;;;;;5050497;28;20032;-75
2021/08/29 09:38:05;;;;;;;4.55;1.25;;;17.40;94.50;;;;;;5051141;28;20029;-75
2021/08/29 09:40:34;;;;;;;4.18;1.30;;;17.40;94.60;;;;;;5050253;28;20080;-75
2021/08/29 09:43:02;;;;;;;2.42;1.10;;;17.30;94.60;;;;;;5051502;28;20100;-75
2021/08/29 09:45:32;;;;;;;4.65;1.42;;;17.30;94.70;;;;;;5051385;28;20017;-75
2021/08/29 09:48:10;;;;;;;4.78;1.00;;;17.30;94.80;;;;;;5050509;28;20116;-75
2021/08/29 09:50:37;;;;;;;4.65;1.70;;;17.20;94.90;;;;;;5051495;28;20413;-75
2021/08/29 09:53:13;;;;;;;4.15;1.70;;;17.20;94.90;;;;;;5050015;28;20025;-75
2021/08/29 09:55:42;;;;;;;2.42;1.20;;;17.30;94.90;;;;;;5051958;28;20036;-76
2021/08/29 09:58:27;;;;;;;6.07;1.45;;;17.40;95.00;;;;;;5049532;28;20384;-75
2021/08/29 10:01:15;;;;;;;2.25;1.02;;;17.40;94.90;;;;;;5051722;28;20021;-75
2021/08/29 10:03:45;;;;;;;3.17;0.80;;;17.40;94.90;;;;;;5051447;28;20089;-76
2021/08/29 10:06:26;;;;;;;3.03;1.20;;;17.40;94.90;;;;;;5050927;28;20025;-76
2021/08/29 10:08:54;;;;;;;4.68;1.38;;;17.40;95.00;;;;;;5050471;28;20372;-76
2021/08/29 10:11:22;;;;;;;3.72;1.17;;;17.40;95.00;;;;;;5051097;28;20029;-76
2021/08/29 10:13:49;;;;;;;3.63;1.08;;;17.40;95.10;;;;;;5055732;28;20032;-76
2021/08/29 10:16:16;;;;;;;2.05;1.00;;;17.40;95.10;;;;;;5055039;28;20028;-76
2021/08/29 10:18:46;;;;;;;5.65;1.48;;;17.40;95.20;;;;;;5054080;28;20029;-76
2021/08/29 10:21:15;;;;;;;3.75;1.30;;;17.40;95.30;;;;;;5054889;28;20048;-75
2021/08/29 10:23:43;;;;;;;2.65;1.00;;;17.40;95.30;;;;;;5055367;28;20096;-77
2021/08/29 10:26:10;;;;;;;2.17;1.25;;;17.40;95.30;;;;;;5054481;28;20114;-76
2021/08/29 10:28:42;;;;;;;5.18;1.30;;;17.40;95.30;;;;;;5055588;28;20129;-76
2021/08/29 10:31:11;;;;;;;1.38;0.60;;;17.30;95.30;;;;;;5055034;28;20029;-75
2021/08/29 10:33:47;;;;;;;2.10;1.05;;;17.40;95.40;;;;;;5055077;28;20025;-74
2021/08/29 10:36:18;;;;;;;1.83;1.10;;;17.40;95.40;;;;;;5054593;28;20465;-77
2021/08/29 10:38:45;;;;;;;3.00;1.13;;;17.40;95.40;;;;;;5054990;28;20041;-77
2021/08/29 10:41:11;;;;;;;2.80;1.27;;;17.40;95.30;;;;;;5054580;28;20103;-77
2021/08/29 10:43:39;;;;;;;2.25;0.95;;;17.50;95.30;;;;;;5054944;28;20039;-77
2021/08/29 10:46:09;;;;;;;3.70;1.20;;;17.40;95.30;;;;;;5054922;28;20476;-77
2021/08/29 10:48:42;;;;;;;1.92;0.80;;;17.40;95.40;;;;;;5054867;28;20064;-77
2021/08/29 10:51:13;;;;;;;1.25;0.85;;;17.40;95.40;;;;;;5054237;28;20021;-77
2021/08/29 10:53:49;;;;;;;3.30;0.93;;;17.40;95.50;;;;;;5054768;28;20031;-77
2021/08/29 10:56:14;;;;;;;3.55;1.08;;;17.40;95.60;;;;;;5052940;28;20108;-77
2021/08/29 10:58:41;;;;;;;2.28;1.08;;;17.40;95.70;;;;;;5054500;28;20108;-77
2021/08/29 11:01:39;;;;;;;1.55;0.90;;;17.40;95.70;;;;;;5054733;28;20028;-77
2021/08/29 11:04:26;;;;;;;4.47;1.38;;;17.40;95.70;;;;;;5054556;28;20021;-77
2021/08/29 11:06:57;;;;;;;2.10;1.00;;;17.30;95.70;;;;;;5054327;28;20024;-77
2021/08/29 11:09:50;;;;;;;2.22;1.13;;;17.30;95.70;;;;;;5053936;28;20021;-77
2021/08/29 11:12:15;;;;;;;1.67;0.90;;;17.40;95.80;;;;;;5048973;28;20045;-74
2021/08/29 11:14:51;;;;;;;1.52;0.90;;;17.30;95.70;;;;;;5053032;28;20392;-74
2021/08/29 11:17:19;;;;;;;2.17;0.90;;;17.30;95.80;;;;;;5053850;28;20036;-77
2021/08/29 11:19:47;;;;;;;3.13;0.73;;;17.30;95.80;;;;;;5054260;28;20029;-77
2021/08/29 11:22:23;;;;;;;2.17;0.80;;;17.30;95.80;;;;;;5053708;28;20052;-77
2021/08/29 11:25:11;;;;;;;0.75;0.60;;;17.30;95.90;;;;;;5053173;28;20024;-74
2021/08/29 11:27:48;;;;;;;1.50;0.68;;;17.30;96.20;;;;;;5052869;28;20118;-74
2021/08/29 11:30:18;;;;;;;2.00;0.90;;;17.30;96.00;;;;;;5037530;28;20040;-76
2021/08/29 11:32:51;;;;;;;2.00;1.15;;;17.20;96.10;;;;;;5026447;28;20034;-77
2021/08/29 11:35:23;;;;;;;2.25;0.73;;;17.30;96.10;;;;;;5031325;28;20029;-74
2021/08/29 11:38:08;;;;;;;1.25;0.70;;;17.30;96.10;;;;;;5030438;28;20026;-76
2021/08/29 11:40:47;;;;;;;2.85;0.80;;;17.30;96.30;;;;;;5040105;28;20419;-76
2021/08/29 11:43:20;;;;;;;0.60;0.50;;;17.20;96.50;;;;;;5061495;28;20028;-75
2021/08/29 11:45:55;;;;;;;2.67;1.00;;;17.20;96.50;;;;;;5071685;28;20016;-75
2021/08/29 11:48:25;;;;;;;2.55;0.80;;;17.20;96.50;;;;;;5069225;28;20012;-75
2021/08/29 11:50:51;;;;;;;1.88;0.73;;;17.20;96.60;;;;;;5071679;28;20074;-74
2021/08/29 11:53:17;;;;;;;1.52;0.80;;;17.20;96.60;;;;;;5067722;28;20031;-74
2021/08/29 11:55:43;;;;;;;1.92;0.80;;;17.20;96.60;;;;;;5070034;28;20028;-74
2021/08/29 11:58:20;;;;;;;0.82;0.70;;;17.30;96.60;;;;;;5070648;28;20030;-75
2021/08/29 12:00:47;;;;;;;2.85;1.25;;;17.20;96.70;;;;;;5071372;28;20094;-75
2021/08/29 12:03:14;;;;;;;1.10;0.60;;;17.30;96.60;;;;;;5069009;28;20061;-74
2021/08/29 12:06:20;;;;;;;2.28;0.93;;;17.30;96.60;;;;;;5069871;28;20020;-75
2021/08/29 12:09:00;;;;;;;1.92;1.20;;;17.40;96.60;;;;;;5050228;28;20056;-76
2021/08/29 12:11:27;;;;;;;2.92;1.02;;;17.50;96.60;;;;;;5069804;28;20029;-76
2021/08/29 12:13:54;;;;;;;4.10;1.02;;;17.50;96.50;;;;;;5071109;28;20021;-76
2021/08/29 12:16:21;;;;;;;3.35;1.20;;;17.40;96.50;;;;;;5068988;28;20021;-76
2021/08/29 12:18:47;;;;;;;2.65;1.08;;;17.40;96.60;;;;;;5069453;28;20029;-76
2021/08/29 12:21:14;;;;;;;2.67;1.25;;;17.50;96.70;;;;;;5069121;28;20031;-78
2021/08/29 12:23:40;;;;;;;2.47;1.33;;;17.40;96.70;;;;;;5070792;28;20529;-76
2021/08/29 12:26:09;;;;;;;3.17;1.60;;;17.40;96.70;;;;;;5069496;28;20135;-76
2021/08/29 12:28:35;;;;;;;3.08;1.25;;;17.50;96.70;;;;;;5068839;28;20021;-76
2021/08/29 12:31:03;;;;;;;2.88;1.63;;;17.50;96.60;;;;;;5070794;28;20047;-76
2021/08/29 12:33:29;;;;;;;5.70;1.83;;;17.60;96.60;;;;;;5070111;28;20062;-75
2021/08/29 12:35:55;;;;;;;3.20;1.77;;;17.70;96.50;;;;;;5042665;28;20296;-76
2021/08/29 12:38:27;;;;;;;5.72;2.08;;;17.70;96.50;;;;;;5045968;28;20039;-76
2021/08/29 12:40:54;;;;;;;4.40;1.70;;;17.70;96.50;;;;;;5050255;28;20052;-76
2021/08/29 12:43:21;;;;;;;4.40;2.10;;;17.80;96.50;;;;;;5039405;28;20031;-76
2021/08/29 12:45:48;;;;;;;3.42;2.10;;;17.70;96.50;;;;;;5030687;28;20104;-75
2021/08/29 12:48:14;;;;;;;3.88;2.08;;;17.70;96.60;;;;;;5032507;28;20113;-76
2021/08/29 12:50:47;;;;;;;4.30;2.30;;;17.80;96.60;;;;;;5039194;28;20018;-76